Time;durP1;ratioP1;P1;durP2;ratioP2;P2;SDS_P1;SDS_P2;PMS_P1;PMS_P2;Temp;Humidity;BMP_temperature;BMP_pressure;BME280_temperature;BME280_humidity;BME280_pressure;Samples;Min_cycle;Max_cycle;Signal;HPM_P1;HPM_P2
2022/02/02 00:02:48;;;;;;;59.67;29.20;;;;;;;-0.23;69.57;100019.84;1736169;82;20255;-65
2022/02/02 00:09:02;;;;;;;38.53;21.48;;;;;;;-0.21;69.78;100012.53;1737118;82;21342;-65
2022/02/02 00:15:39;;;;;;;49.85;23.45;;;;;;;-0.21;69.62;100013.37;1736485;82;21231;-65
2022/02/02 00:18:53;;;;;;;50.12;23.65;;;;;;;-0.21;69.74;100012.53;1736210;82;21394;-65
2022/02/02 00:22:02;;;;;;;47.93;26.10;;;;;;;-0.15;69.88;100010.23;1736094;82;21445;-66
2022/02/02 00:25:17;;;;;;;61.42;29.10;;;;;;;-0.08;69.84;100010.11;1736148;82;21480;-65
2022/02/02 00:28:23;;;;;;;61.35;31.62;;;;;;;-0.02;69.72;100002.07;1736344;82;21336;-66
2022/02/02 00:31:34;;;;;;;62.27;32.25;;;;;;;0.01;69.47;99989.73;1736725;82;21863;-67
2022/02/02 00:34:34;;;;;;;71.00;34.05;;;;;;;-0.01;69.14;99991.67;1738123;81;21417;-66
2022/02/02 00:37:40;;;;;;;73.42;33.78;;;;;;;0.03;69.04;99994.98;1742565;81;21346;-65
2022/02/02 00:40:46;;;;;;;66.57;29.87;;;;;;;0.03;68.93;99991.30;1742789;81;21358;-66
2022/02/02 00:43:59;;;;;;;52.50;27.00;;;;;;;0.08;68.98;99992.29;1742044;82;21566;-66
2022/02/02 00:47:02;;;;;;;52.90;27.07;;;;;;;0.13;68.90;99990.10;1742076;82;21813;-65
2022/02/02 00:50:08;;;;;;;41.55;22.27;;;;;;;0.10;68.62;99978.23;1741845;82;21351;-67
2022/02/02 00:53:17;;;;;;;37.93;21.40;;;;;;;0.09;68.72;99973.84;1741967;82;21374;-67
2022/02/02 00:56:23;;;;;;;38.90;19.07;;;;;;;0.12;69.01;99981.67;1752173;81;21211;-66
2022/02/02 00:59:29;;;;;;;44.50;19.17;;;;;;;0.18;69.35;99971.77;1744557;81;21220;-66
2022/02/02 01:02:34;;;;;;;38.28;18.62;;;;;;;0.24;69.49;99967.23;1743534;81;21890;-66
2022/02/02 01:05:41;;;;;;;39.48;19.37;;;;;;;0.30;69.56;99968.13;1741830;82;21192;-66
2022/02/02 01:28:37;;;;;;;43.35;17.75;;;;;;;0.64;69.80;99962.22;1742902;82;21375;-66
2022/02/02 01:31:42;;;;;;;37.88;17.90;;;;;;;0.70;69.89;99954.51;1741911;82;21385;-65
2022/02/02 01:34:47;;;;;;;33.55;16.55;;;;;;;0.77;69.88;99953.05;1741661;81;21192;-66
2022/02/02 01:37:56;;;;;;;36.20;16.85;;;;;;;0.81;69.85;99944.23;1742102;82;21357;-65
2022/02/02 01:41:16;;;;;;;30.37;16.50;;;;;;;0.79;70.01;99944.36;1752810;81;21196;-66
2022/02/02 01:47:42;;;;;;;27.62;15.40;;;;;;;0.87;70.30;99934.30;1733773;82;21334;-66
2022/02/02 01:54:18;;;;;;;28.23;14.23;;;;;;;0.87;70.39;99923.00;1741976;82;21386;-66
2022/02/02 01:57:33;;;;;;;32.23;14.18;;;;;;;0.86;70.57;99922.65;1743806;81;21220;-66
2022/02/02 02:00:19;;;;;;;26.45;14.15;;;;;;;0.87;70.63;99917.61;1743007;81;21424;-66
2022/02/02 02:03:25;;;;;;;26.00;13.65;;;;;;;0.87;70.79;99920.31;1714195;82;21218;-65
2022/02/02 02:06:30;;;;;;;23.87;13.18;;;;;;;0.89;70.87;99914.80;1704113;83;21203;-66
2022/02/02 02:09:38;;;;;;;29.42;13.98;;;;;;;0.86;70.82;99907.83;1714378;82;21369;-65
2022/02/02 02:12:57;;;;;;;29.42;14.50;;;;;;;0.82;70.72;99913.12;1730592;81;21196;-65
2022/02/02 02:15:56;;;;;;;26.15;13.30;;;;;;;0.77;70.81;99903.69;1743521;81;21215;-65
2022/02/02 02:19:01;;;;;;;27.80;14.05;;;;;;;0.75;71.04;99906.52;1742947;81;21370;-66
2022/02/02 02:22:08;;;;;;;25.65;13.35;;;;;;;0.78;71.00;99904.05;1742894;81;21342;-65
2022/02/02 02:25:14;;;;;;;24.90;12.98;;;;;;;0.76;71.12;99897.95;1741915;82;21235;-65
2022/02/02 02:32:12;;;;;;;27.15;13.13;;;;;;;0.83;71.29;99900.00;1741961;82;21346;-66
2022/02/02 02:35:14;;;;;;;22.27;12.18;;;;;;;0.86;71.32;99902.45;1742754;81;21358;-64
2022/02/02 02:58:42;;;;;;;26.48;15.48;;;;;;;1.18;70.26;99914.11;1741929;82;21224;-65
2022/02/02 03:55:35;;;;;;;30.88;15.35;;;;;;;1.85;70.45;99906.53;1737494;81;21346;-65
2022/02/02 03:58:41;;;;;;;31.15;16.20;;;;;;;1.84;70.53;99907.50;1737459;82;21816;-65
2022/02/02 04:02:12;;;;;;;31.42;14.95;;;;;;;1.85;70.63;99905.66;1737623;82;21689;-65
2022/02/02 04:11:36;;;;;;;29.98;13.78;;;;;;;1.77;70.93;99912.21;1737672;82;21342;-65
2022/02/02 04:51:47;;;;;;;33.70;16.97;;;;;;;1.69;71.50;99909.31;1723342;81;21350;-63
2022/02/02 04:54:49;;;;;;;34.60;18.17;;;;;;;1.61;71.57;99905.07;1736700;82;21370;-65
2022/02/02 05:02:02;;;;;;;33.38;16.42;;;;;;;1.46;72.24;99911.27;1735342;82;21335;-67
2022/02/02 05:11:04;;;;;;;29.45;15.28;;;;;;;1.25;73.27;99919.84;1736071;82;21192;-65
2022/02/02 05:44:07;;;;;;;25.57;13.25;;;;;;;1.22;73.79;99933.06;1741969;82;21334;-66
2022/02/02 05:53:30;;;;;;;21.95;12.55;;;;;;;1.31;74.60;99948.50;1742835;81;21377;-65
2022/02/02 05:56:36;;;;;;;29.07;13.85;;;;;;;1.40;74.51;99945.50;1741922;81;21334;-65
2022/02/02 05:59:44;;;;;;;29.10;13.28;;;;;;;1.47;74.33;99942.66;1741061;81;21228;-65
2022/02/02 06:02:54;;;;;;;21.40;12.68;;;;;;;1.46;74.16;99947.67;1703293;84;21274;-66
2022/02/02 06:06:01;;;;;;;27.40;12.80;;;;;;;1.48;74.18;99937.14;1743004;82;21203;-65
2022/02/02 06:09:07;;;;;;;22.70;12.43;;;;;;;1.49;74.07;99941.54;1744212;81;21553;-65
2022/02/02 06:12:15;;;;;;;27.75;13.78;;;;;;;1.46;74.05;99934.19;1743244;82;21342;-66
2022/02/02 06:15:21;;;;;;;27.62;14.38;;;;;;;1.48;74.23;99930.40;1742745;81;21385;-66
2022/02/02 06:18:31;;;;;;;29.48;16.45;;;;;;;1.54;74.17;99948.75;1737433;82;21251;-66
2022/02/02 06:21:40;;;;;;;25.32;14.10;;;;;;;1.57;73.95;99937.34;1741073;81;21195;-66
2022/02/02 06:24:56;;;;;;;24.50;13.03;;;;;;;1.54;73.88;99941.14;1741702;81;21567;-65
2022/02/02 06:28:10;;;;;;;25.37;13.65;;;;;;;1.50;73.88;99939.22;1741506;81;21200;-64
2022/02/02 06:31:15;;;;;;;22.93;13.38;;;;;;;1.48;74.01;99934.45;1741286;81;21203;-66
2022/02/02 06:34:23;;;;;;;29.02;14.20;;;;;;;1.55;74.14;99945.58;1742808;81;21192;-66
2022/02/02 06:37:29;;;;;;;21.95;13.60;;;;;;;1.59;74.21;99950.22;1731976;81;21179;-65
2022/02/02 06:40:35;;;;;;;27.48;15.75;;;;;;;1.64;74.09;99935.83;1742883;81;21248;-65
2022/02/02 06:43:40;;;;;;;29.25;15.35;;;;;;;1.68;74.20;99944.03;1738640;81;21656;-65
2022/02/02 06:46:45;;;;;;;34.55;18.07;;;;;;;1.78;74.24;99936.84;1740976;81;21749;-64
2022/02/02 06:53:39;;;;;;;24.55;13.53;;;;;;;1.84;73.95;99936.34;1740171;81;21199;-65
2022/02/02 06:56:55;;;;;;;20.77;13.13;;;;;;;1.83;73.82;99935.48;1735021;82;21285;-65
2022/02/02 07:00:07;;;;;;;23.40;12.82;;;;;;;1.80;73.97;99934.40;1730553;82;21371;-65
2022/02/02 07:03:36;;;;;;;28.47;15.23;;;;;;;1.86;74.03;99933.87;1738444;81;21188;-66
2022/02/02 07:10:07;;;;;;;28.17;15.15;;;;;;;2.00;74.20;99932.69;1722924;82;21202;-66
2022/02/02 07:16:37;;;;;;;29.30;13.25;;;;;;;2.17;74.06;99944.22;1743281;82;21237;-65
2022/02/02 07:26:52;;;;;;;20.17;12.03;;;;;;;2.46;73.51;99930.34;1736343;82;21269;-65
2022/02/02 07:29:03;;;;;;;23.75;13.18;;;;;;;2.54;73.43;99940.84;1723321;83;21243;-65
2022/02/02 07:35:54;;;;;;;37.35;21.90;;;;;;;2.70;72.87;99938.97;1738369;82;21346;-65
2022/02/02 07:39:13;;;;;;;27.40;17.70;;;;;;;2.78;72.74;99940.01;1736362;82;21350;-65
2022/02/02 07:42:18;;;;;;;30.92;18.57;;;;;;;2.86;72.47;99930.72;1740671;81;21350;-67
2022/02/02 07:45:24;;;;;;;21.20;13.48;;;;;;;2.89;72.10;99923.69;1737271;82;21346;-65
2022/02/02 07:48:31;;;;;;;24.25;13.55;;;;;;;2.95;71.98;99923.13;1737964;82;21318;-66
2022/02/02 07:51:36;;;;;;;19.37;12.25;;;;;;;3.02;71.62;99920.72;1736716;82;21334;-66
2022/02/02 07:54:50;;;;;;;26.97;13.18;;;;;;;3.09;71.54;99921.88;1732767;82;21401;-64
2022/02/02 07:58:02;;;;;;;21.68;13.53;;;;;;;3.23;71.30;99916.06;1736493;82;21271;-65
2022/02/02 08:01:16;;;;;;;24.98;13.22;;;;;;;3.36;70.99;99920.70;1737795;82;21180;-66
2022/02/02 08:04:29;;;;;;;23.55;13.32;;;;;;;3.41;70.30;99925.69;1736821;81;21401;-65
2022/02/02 08:07:39;;;;;;;;;;;;;;;3.34;70.02;99911.00;1738813;82;21721;-67
2022/02/02 08:10:41;;;;;;;24.92;14.33;;;;;;;3.33;69.99;99923.66;1690596;84;20221;-66
2022/02/02 08:13:48;;;;;;;23.60;13.53;;;;;;;3.46;70.08;99928.30;1736712;81;21187;-67
2022/02/02 08:16:53;;;;;;;22.40;14.45;;;;;;;3.63;69.67;99919.47;1736363;82;22042;-66
2022/02/02 08:20:04;;;;;;;25.15;14.73;;;;;;;3.77;69.02;99927.17;1735998;82;21760;-67
2022/02/02 08:23:10;;;;;;;31.12;15.72;;;;;;;3.91;68.66;99921.80;1736871;82;21557;-66
2022/02/02 08:26:16;;;;;;;28.00;15.32;;;;;;;4.10;68.20;99919.92;1737097;82;21199;-67
2022/02/02 08:29:26;;;;;;;38.70;18.67;;;;;;;4.29;67.47;99917.16;1719574;82;21202;-66
2022/02/02 08:32:40;;;;;;;32.83;17.20;;;;;;;4.43;66.87;99915.31;1722438;82;21760;-66
2022/02/02 08:35:49;;;;;;;23.83;13.88;;;;;;;4.54;66.03;99919.19;1737090;82;21869;-66
2022/02/02 08:42:04;;;;;;;27.98;16.50;;;;;;;4.45;65.70;99921.45;1717201;81;21188;-65
2022/02/02 08:45:27;;;;;;;29.27;18.05;;;;;;;4.53;65.61;99909.33;1702003;83;21244;-65
2022/02/02 08:48:32;;;;;;;29.02;16.52;;;;;;;4.55;65.20;99914.11;1701181;83;21200;-66
2022/02/02 08:51:42;;;;;;;27.25;17.15;;;;;;;4.46;64.70;99917.73;1701445;83;21271;-66
2022/02/02 08:54:56;;;;;;;28.38;16.87;;;;;;;4.30;64.56;99924.27;1700846;83;21231;-65
2022/02/02 08:58:20;;;;;;;31.35;17.42;;;;;;;4.34;64.88;99922.13;1672807;85;21212;-67
2022/02/02 09:01:21;;;;;;;24.67;15.72;;;;;;;4.43;64.75;99924.80;1671802;85;21260;-67
2022/02/02 09:07:41;;;;;;;25.97;17.05;;;;;;;4.51;64.28;99919.49;1673125;84;21208;-67
2022/02/02 09:22:16;;;;;;;35.23;19.42;;;;;;;4.24;63.49;99906.39;1701010;84;21217;-67
2022/02/02 09:24:30;;;;;;;29.72;17.45;;;;;;;4.17;63.71;99893.94;1701346;84;21766;-67
2022/02/02 09:34:13;;;;;;;28.57;16.35;;;;;;;4.19;63.89;99885.17;1700816;84;21224;-70
2022/02/02 09:37:19;;;;;;;31.35;17.67;;;;;;;4.14;63.71;99883.89;1688049;84;21752;-66
2022/02/02 09:43:47;;;;;;;29.07;16.97;;;;;;;4.08;64.01;99872.30;1679225;82;21852;-71
2022/02/02 09:50:09;;;;;;;27.32;18.17;;;;;;;4.06;64.13;99873.80;1705532;83;21413;-67
2022/02/02 09:53:17;;;;;;;35.30;20.80;;;;;;;4.05;64.12;99884.78;1732307;83;21232;-68
2022/02/02 09:56:35;;;;;;;28.77;18.40;;;;;;;4.05;64.17;99878.87;1732230;83;21207;-65
2022/02/02 10:02:59;;;;;;;30.52;18.87;;;;;;;4.12;64.39;99870.50;1708652;83;21267;-67
2022/02/02 10:05:54;;;;;;;34.27;19.42;;;;;;;4.10;63.99;99858.12;1719425;81;21238;-67
2022/02/02 10:09:14;;;;;;;34.27;20.72;;;;;;;4.05;64.16;99859.92;1731221;83;21584;-68
2022/02/02 10:15:06;;;;;;;34.00;20.65;;;;;;;4.08;64.24;99862.82;1731630;83;21262;-66
2022/02/02 10:18:19;;;;;;;34.85;19.50;;;;;;;4.08;64.24;99851.50;1731157;83;21991;-66
2022/02/02 10:21:22;;;;;;;32.35;19.02;;;;;;;4.09;64.28;99841.00;1728551;83;21185;-67
2022/02/02 10:24:48;;;;;;;30.77;18.45;;;;;;;4.15;64.29;99830.95;1723874;83;21714;-66
2022/02/02 10:27:52;;;;;;;37.95;21.37;;;;;;;4.29;64.09;99842.66;1713286;83;21199;-67
2022/02/02 10:31:01;;;;;;;31.57;17.62;;;;;;;4.43;63.72;99835.88;1729522;82;21204;-67
2022/02/02 10:34:22;;;;;;;27.27;16.57;;;;;;;4.57;63.40;99835.36;1729209;83;21193;-67
2022/02/02 10:37:31;;;;;;;28.98;16.57;;;;;;;4.72;62.96;99833.00;1729424;83;21581;-68
2022/02/02 10:40:57;;;;;;;23.12;14.53;;;;;;;4.80;62.62;99825.83;1729904;83;21223;-68
2022/02/02 10:44:03;;;;;;;24.40;14.73;;;;;;;4.89;62.24;99815.89;1730190;83;21406;-68
2022/02/02 10:47:30;;;;;;;25.88;15.85;;;;;;;5.00;62.14;99814.31;1732394;82;21402;-67
2022/02/02 10:50:38;;;;;;;26.70;14.40;;;;;;;5.18;61.78;99814.69;1668649;85;21252;-68
2022/02/02 10:56:54;;;;;;;23.20;13.55;;;;;;;5.09;60.71;99800.67;1737923;81;21204;-65
2022/02/02 11:06:41;;;;;;;25.75;14.00;;;;;;;5.51;60.69;99792.73;1692174;83;21252;-68
2022/02/02 11:09:49;;;;;;;23.67;13.55;;;;;;;5.72;60.38;99791.88;1703140;84;21734;-70
2022/02/02 11:12:55;;;;;;;23.18;14.38;;;;;;;5.94;59.84;99784.58;1670617;85;21779;-69
2022/02/02 11:16:04;;;;;;;23.55;14.35;;;;;;;6.07;59.24;99778.20;1699424;82;21221;-68
2022/02/02 11:19:09;;;;;;;24.05;13.78;;;;;;;6.06;59.07;99777.34;1654226;85;21384;-68
2022/02/02 11:22:32;;;;;;;19.52;12.90;;;;;;;6.12;58.82;99772.28;1704248;84;21405;-68
2022/02/02 11:25:38;;;;;;;;;;;;;;;6.17;58.73;99776.19;1686920;84;21600;-67
2022/02/02 11:28:44;;;;;;;24.65;12.75;;;;;;;6.09;58.61;99766.14;1733415;82;20212;-70
2022/02/02 11:32:13;;;;;;;21.15;13.13;;;;;;;6.08;58.83;99769.02;1734380;82;21515;-68
2022/02/02 11:35:43;;;;;;;24.27;12.95;;;;;;;6.17;58.86;99772.64;1658102;85;21765;-68
2022/02/02 11:38:51;;;;;;;19.57;11.40;;;;;;;6.22;58.39;99764.33;1656519;84;21793;-68
2022/02/02 11:42:01;;;;;;;21.30;12.53;;;;;;;6.27;58.21;99766.55;1682184;84;21270;-69
2022/02/02 11:45:16;;;;;;;19.05;11.93;;;;;;;6.29;58.09;99768.11;1706882;82;21239;-67
2022/02/02 11:48:20;;;;;;;20.43;11.55;;;;;;;6.38;58.28;99756.24;1734168;82;21200;-68
2022/02/02 11:51:46;;;;;;;17.17;10.98;;;;;;;6.50;58.18;99761.71;1746771;81;21716;-68
2022/02/02 11:54:52;;;;;;;20.23;11.85;;;;;;;6.55;57.74;99759.35;1746509;80;21298;-68
2022/02/02 11:58:20;;;;;;;16.87;10.63;;;;;;;6.67;57.63;99747.66;1749092;82;21288;-70
2022/02/02 12:01:45;;;;;;;23.57;11.73;;;;;;;6.77;57.31;99742.41;1749470;81;21270;-68
2022/02/02 12:05:15;;;;;;;22.48;10.72;;;;;;;6.87;57.02;99739.53;1748776;80;21828;-68
2022/02/02 12:08:36;;;;;;;20.82;10.85;;;;;;;6.95;56.69;99739.05;1741622;81;21780;-67
2022/02/02 12:19:06;;;;;;;19.75;11.53;;;;;;;6.85;56.15;99743.78;1747340;82;21296;-67
2022/02/02 12:53:39;;;;;;;21.45;11.63;;;;;;;6.73;55.00;99759.23;1726491;81;21239;-65
2022/02/02 12:56:42;;;;;;;16.82;10.00;;;;;;;6.52;55.21;99746.59;1653353;85;21229;-65
2022/02/02 13:03:17;;;;;;;14.78;8.90;;;;;;;6.38;55.61;99767.62;1722968;82;21604;-65
2022/02/02 13:06:59;;;;;;;20.65;10.85;;;;;;;6.28;55.86;99766.39;1702519;82;21835;-64
2022/02/02 13:10:22;;;;;;;26.65;14.38;;;;;;;6.20;56.09;99771.78;1676077;84;21315;-64
2022/02/02 13:13:30;;;;;;;18.60;11.78;;;;;;;6.09;56.44;99781.59;1697197;82;21782;-64
2022/02/02 13:16:35;;;;;;;21.70;11.30;;;;;;;5.97;56.55;99777.45;1732645;82;21296;-64
2022/02/02 13:19:44;;;;;;;21.27;12.18;;;;;;;5.83;56.88;99776.70;1713405;82;21219;-63
2022/02/02 13:22:54;;;;;;;20.45;12.13;;;;;;;5.76;57.19;99768.80;1707997;82;21199;-64
2022/02/02 13:26:12;;;;;;;19.27;11.08;;;;;;;5.55;57.58;99769.17;1709509;82;21228;-64
2022/02/02 13:29:42;;;;;;;25.50;12.23;;;;;;;5.41;58.04;99764.83;1711242;81;22085;-65
2022/02/02 13:32:49;;;;;;;21.60;11.80;;;;;;;5.29;58.42;99768.81;1728854;82;21191;-63
2022/02/02 13:36:00;;;;;;;21.30;12.18;;;;;;;5.12;58.96;99765.63;1713672;82;21208;-63
2022/02/02 13:42:41;;;;;;;20.60;11.53;;;;;;;4.90;60.15;99767.45;1732569;82;21191;-63
2022/02/02 13:48:54;;;;;;;21.60;11.93;;;;;;;4.89;60.83;99765.73;1709699;79;21216;-62
2022/02/02 13:52:06;;;;;;;18.90;11.97;;;;;;;4.87;61.00;99765.05;1726902;83;21211;-63
2022/02/02 13:55:14;;;;;;;18.92;11.03;;;;;;;4.87;61.20;99768.60;1730999;81;21224;-63
2022/02/02 13:58:47;;;;;;;21.97;11.70;;;;;;;4.86;61.36;99768.75;1726511;83;21765;-64
2022/02/02 14:11:43;;;;;;;20.32;12.07;;;;;;;4.67;62.24;99772.47;1717045;83;21211;-63
2022/02/02 14:31:45;;;;;;;20.62;12.90;;;;;;;4.28;64.46;99777.27;1723486;83;21278;-63
2022/02/02 14:34:53;;;;;;;17.75;11.18;;;;;;;4.29;64.88;99773.58;1684369;84;21256;-64
2022/02/02 14:38:05;;;;;;;18.92;12.07;;;;;;;4.25;65.19;99768.62;1699607;84;21212;-64
2022/02/02 14:41:22;;;;;;;17.80;11.22;;;;;;;4.22;65.59;99780.59;1702359;84;21772;-63
2022/02/02 14:44:33;;;;;;;17.85;11.75;;;;;;;4.22;65.86;99783.78;1718858;83;21706;-63
2022/02/02 14:47:37;;;;;;;18.57;11.50;;;;;;;4.20;66.08;99790.70;1728612;82;21714;-65
2022/02/02 14:50:56;;;;;;;18.95;11.68;;;;;;;4.19;66.22;99788.16;1724939;79;21574;-64
2022/02/02 15:30:25;;;;;;;21.05;13.80;;;;;;;3.79;68.82;99788.98;1729530;83;21707;-64
2022/02/02 15:33:25;;;;;;;22.07;13.62;;;;;;;3.77;68.94;99795.90;1727720;83;21199;-64
2022/02/02 15:39:59;;;;;;;40.52;26.23;;;;;;;3.70;69.20;99796.12;1729196;83;21220;-65
2022/02/02 15:43:08;;;;;;;32.75;21.05;;;;;;;3.66;69.25;99792.02;1730888;83;21196;-62
2022/02/02 15:57:09;;;;;;;;;;;;;;;3.47;69.62;99796.61;1742988;82;21216;-65
2022/02/02 16:03:08;;;;;;;31.17;18.82;;;;;;;3.41;69.98;99795.84;1740930;81;21223;-64
2022/02/02 16:06:19;;;;;;;35.10;21.17;;;;;;;3.35;70.02;99793.20;1711127;83;21766;-64
2022/02/02 16:09:28;;;;;;;33.58;20.00;;;;;;;3.30;70.14;99790.59;1732716;81;21771;-64
2022/02/02 16:12:45;;;;;;;31.40;19.82;;;;;;;3.26;70.25;99791.38;1743111;81;21804;-65
2022/02/02 16:15:43;;;;;;;32.40;18.82;;;;;;;3.19;70.31;99794.80;1743733;81;21338;-64
2022/02/02 16:19:05;;;;;;;31.87;19.65;;;;;;;3.13;70.39;99801.63;1744074;81;21736;-64
2022/02/02 16:31:30;;;;;;;32.88;19.52;;;;;;;2.96;70.51;99792.88;1741087;81;21290;-63
2022/02/02 16:38:39;;;;;;;28.55;16.48;;;;;;;2.73;71.27;99796.84;1732170;81;21275;-65
2022/02/02 16:45:08;;;;;;;31.17;17.42;;;;;;;2.69;71.87;99798.13;1731094;81;21784;-65
2022/02/02 16:48:13;;;;;;;27.37;17.15;;;;;;;2.68;72.03;99801.31;1730658;83;21199;-64
2022/02/02 16:51:20;;;;;;;31.97;17.73;;;;;;;2.68;72.12;99797.26;1729303;82;21304;-64
2022/02/02 16:54:32;;;;;;;33.35;18.65;;;;;;;2.70;72.35;99792.58;1725809;81;21231;-64
2022/02/02 17:31:05;;;;;;;29.60;16.65;;;;;;;3.10;72.81;99799.20;1704635;84;21259;-64
2022/02/02 17:34:17;;;;;;;26.68;16.93;;;;;;;3.14;72.78;99789.80;1704827;82;21369;-64
2022/02/02 17:40:37;;;;;;;29.98;22.02;;;;;;;3.19;72.73;99788.88;1704452;83;21224;-64
2022/02/02 18:03:43;;;;;;;25.52;14.70;;;;;;;3.37;72.66;99780.39;1703230;84;21192;-66
2022/02/02 18:19:57;;;;;;;28.90;16.62;;;;;;;3.39;72.60;99763.53;1701911;83;21220;-65
2022/02/02 18:26:19;;;;;;;26.15;15.63;;;;;;;3.32;72.63;99758.33;1696236;84;22010;-65
2022/02/02 18:29:39;;;;;;;25.88;15.88;;;;;;;3.26;72.60;99754.86;1702118;83;21236;-65
2022/02/02 18:32:49;;;;;;;23.40;14.40;;;;;;;3.21;72.72;99760.34;1702254;84;21203;-65
2022/02/02 18:35:55;;;;;;;26.90;15.80;;;;;;;3.20;72.91;99760.86;1702455;83;21211;-65
2022/02/02 18:48:57;;;;;;;22.02;14.65;;;;;;;3.17;73.14;99750.33;1654431;86;21268;-64
2022/02/02 18:55:33;;;;;;;26.55;14.68;;;;;;;3.22;73.39;99752.08;1708236;82;21788;-65
2022/02/02 18:58:48;;;;;;;25.60;14.98;;;;;;;3.24;73.32;99752.80;1708299;84;21298;-65
2022/02/02 19:02:02;;;;;;;23.35;13.70;;;;;;;3.24;73.45;99747.88;1714351;83;21346;-65
2022/02/02 19:05:19;;;;;;;22.93;14.15;;;;;;;3.27;73.52;99748.44;1714802;82;21214;-64
2022/02/02 19:15:19;;;;;;;25.97;14.90;;;;;;;3.37;73.46;99751.98;1675337;85;21414;-65
2022/02/02 19:39:17;;;;;;;31.27;15.83;;;;;;;3.39;73.78;99758.12;1711949;83;21202;-66
2022/02/02 20:02:26;;;;;;;22.20;15.23;;;;;;;3.57;73.59;99780.69;1704461;83;21255;-65
2022/02/02 20:05:18;;;;;;;27.55;16.15;;;;;;;3.56;73.52;99783.05;1703866;84;21429;-65
2022/02/02 20:08:38;;;;;;;25.88;15.48;;;;;;;3.56;73.55;99780.35;1703867;83;21200;-66
2022/02/02 20:11:21;;;;;;;32.78;18.12;;;;;;;3.55;73.53;99781.33;1704355;83;21184;-65
2022/02/02 20:14:25;;;;;;;30.72;17.75;;;;;;;3.57;73.82;99782.05;1704184;84;21373;-64
2022/02/02 20:17:33;;;;;;;27.98;16.87;;;;;;;3.63;73.99;99773.33;1704363;83;21355;-65
2022/02/02 20:20:41;;;;;;;28.12;17.82;;;;;;;3.66;73.96;99774.91;1704277;83;21339;-65
2022/02/02 20:23:49;;;;;;;24.60;15.78;;;;;;;3.66;73.87;99760.89;1704179;84;21880;-65
2022/02/02 20:26:55;;;;;;;21.70;15.08;;;;;;;3.68;73.82;99769.69;1704208;84;21338;-65
2022/02/02 20:30:01;;;;;;;22.20;14.75;;;;;;;3.58;73.35;99766.19;1704167;84;21422;-65
2022/02/02 20:33:06;;;;;;;27.22;17.87;;;;;;;3.49;73.65;99772.45;1704615;83;21244;-65
2022/02/02 20:36:12;;;;;;;31.80;18.92;;;;;;;3.51;74.06;99771.81;1704210;84;21366;-65
2022/02/02 20:39:37;;;;;;;32.23;19.77;;;;;;;3.55;74.31;99766.45;1704150;84;21409;-65
2022/02/02 20:42:36;;;;;;;32.73;18.80;;;;;;;3.59;74.30;99774.64;1704265;83;21334;-64
2022/02/02 21:00:22;;;;;;;33.00;19.35;;;;;;;3.67;74.14;99773.41;1704425;83;21263;-64
2022/02/02 21:09:29;;;;;;;31.65;20.60;;;;;;;3.56;74.55;99783.55;1737639;81;21337;-65
2022/02/02 21:15:43;;;;;;;30.97;19.23;;;;;;;3.64;74.80;99783.18;1737857;81;21981;-65
2022/02/02 21:18:54;;;;;;;29.87;18.82;;;;;;;3.69;74.81;99793.07;1737662;81;21844;-65
2022/02/02 21:22:01;;;;;;;36.73;22.62;;;;;;;3.70;74.67;99797.47;1737665;82;21204;-64
2022/02/02 21:25:31;;;;;;;36.68;23.12;;;;;;;3.68;74.50;99794.57;1737847;81;21393;-65
2022/02/02 21:28:17;;;;;;;38.15;23.85;;;;;;;3.65;74.51;99795.70;1738123;82;21812;-65
2022/02/02 21:31:23;;;;;;;36.48;22.50;;;;;;;3.63;74.51;99796.34;1738740;82;21859;-65
2022/02/02 21:34:29;;;;;;;34.95;21.45;;;;;;;3.57;74.61;99799.63;1738329;81;21434;-65
2022/02/02 21:37:36;;;;;;;32.38;20.35;;;;;;;3.60;74.98;99788.52;1737642;82;21390;-65
2022/02/02 21:40:45;;;;;;;34.45;20.88;;;;;;;3.64;75.11;99799.91;1737852;81;21346;-65
2022/02/02 21:43:49;;;;;;;32.93;19.92;;;;;;;3.67;75.12;99807.23;1738133;81;21213;-65
2022/02/02 21:46:57;;;;;;;34.60;21.50;;;;;;;3.68;74.99;99814.34;1737975;82;21682;-65
2022/02/02 21:50:08;;;;;;;34.67;20.52;;;;;;;3.66;74.93;99811.45;1739373;81;21381;-64
2022/02/02 21:53:12;;;;;;;32.45;21.17;;;;;;;3.62;75.01;99809.52;1737753;82;21264;-64
2022/02/02 21:56:17;;;;;;;33.78;20.30;;;;;;;3.61;75.09;99805.61;1737773;82;21324;-65
2022/02/02 21:59:23;;;;;;;34.13;20.45;;;;;;;3.59;75.14;99811.17;1737779;81;21888;-64
2022/02/02 22:02:32;;;;;;;33.45;20.32;;;;;;;3.56;75.26;99810.61;1737848;82;21373;-65
2022/02/02 22:05:37;;;;;;;34.95;21.05;;;;;;;3.56;75.49;99817.37;1737877;81;21368;-64
2022/02/02 22:08:43;;;;;;;38.13;21.85;;;;;;;3.55;75.54;99816.50;1737793;81;21693;-65
2022/02/02 22:11:49;;;;;;;34.75;20.77;;;;;;;3.53;75.60;99818.52;1726833;82;21200;-65
2022/02/02 22:14:56;;;;;;;38.33;21.85;;;;;;;3.53;75.78;99833.89;1737873;81;21377;-64
2022/02/02 22:18:01;;;;;;;36.60;22.07;;;;;;;3.52;75.93;99823.56;1728572;82;21397;-67
2022/02/02 22:21:06;;;;;;;43.02;23.70;;;;;;;3.53;76.00;99833.41;1737881;82;21354;-65
2022/02/02 22:24:13;;;;;;;41.63;22.62;;;;;;;3.52;76.09;99830.33;1737865;81;21338;-64
2022/02/02 22:27:21;;;;;;;43.13;22.55;;;;;;;3.52;76.15;99833.03;1738028;82;21326;-64
2022/02/02 22:30:28;;;;;;;42.13;22.50;;;;;;;3.55;76.25;99839.50;1737882;81;21283;-65
2022/02/02 22:33:35;;;;;;;47.15;24.47;;;;;;;3.52;76.28;99843.86;1737822;81;21208;-65
2022/02/02 22:36:43;;;;;;;47.65;24.60;;;;;;;3.50;76.42;99849.06;1737898;82;21337;-64
2022/02/02 22:39:52;;;;;;;45.52;23.65;;;;;;;3.50;76.56;99847.23;1728253;82;21358;-65
2022/02/02 22:42:57;;;;;;;47.90;22.70;;;;;;;3.51;76.62;99847.56;1738114;82;21827;-66
2022/02/02 22:46:03;;;;;;;49.05;24.10;;;;;;;3.49;76.57;99852.78;1737905;82;21358;-65
2022/02/02 22:49:10;;;;;;;48.95;25.23;;;;;;;3.50;76.81;99852.64;1737644;81;21314;-66
2022/02/02 22:52:18;;;;;;;47.95;24.47;;;;;;;3.55;76.89;99863.86;1737960;82;21204;-64
2022/02/02 22:55:24;;;;;;;50.15;25.77;;;;;;;3.55;76.83;99858.97;1737658;81;21377;-65
2022/02/02 22:58:31;;;;;;;51.13;26.00;;;;;;;3.56;76.78;99862.88;1737752;81;21413;-65
2022/02/02 23:01:39;;;;;;;47.70;25.00;;;;;;;3.59;76.95;99869.84;1737873;82;21389;-65
2022/02/02 23:04:45;;;;;;;48.55;24.55;;;;;;;3.65;77.15;99872.83;1738537;81;21346;-65
2022/02/02 23:07:52;;;;;;;50.78;25.68;;;;;;;3.71;77.22;99872.77;1739185;82;21430;-64
2022/02/02 23:10:59;;;;;;;46.28;24.02;;;;;;;3.76;77.07;99882.14;1738969;80;21227;-65
2022/02/02 23:14:05;;;;;;;47.45;25.20;;;;;;;3.78;77.00;99877.44;1737896;81;21251;-66
2022/02/02 23:17:13;;;;;;;50.25;25.12;;;;;;;3.80;76.88;99876.80;1738588;82;21366;-65
2022/02/02 23:20:19;;;;;;;49.83;26.93;;;;;;;3.82;76.79;99872.08;1737883;81;21398;-65
2022/02/02 23:23:29;;;;;;;49.95;26.30;;;;;;;3.83;76.59;99871.58;1737825;82;21370;-65
2022/02/02 23:26:34;;;;;;;47.98;26.30;;;;;;;3.84;76.63;99880.05;1721826;82;21211;-64
2022/02/02 23:29:46;;;;;;;52.48;28.12;;;;;;;3.85;76.61;99877.23;1738983;81;21211;-64
2022/02/02 23:32:52;;;;;;;51.20;26.75;;;;;;;3.84;76.45;99879.56;1737882;82;21164;-64
2022/02/02 23:35:58;;;;;;;56.83;28.12;;;;;;;3.84;76.46;99876.85;1716099;82;21188;-65
2022/02/02 23:39:04;;;;;;;54.93;27.93;;;;;;;3.83;76.19;99873.80;1737825;81;21362;-65
2022/02/02 23:42:20;;;;;;;57.95;29.72;;;;;;;3.81;76.10;99873.09;1738868;82;21342;-65
2022/02/02 23:45:25;;;;;;;60.30;29.80;;;;;;;3.80;76.26;99876.80;1738125;81;21437;-64
2022/02/02 23:48:34;;;;;;;59.10;27.10;;;;;;;3.78;76.22;99880.14;1738117;82;21267;-64
2022/02/02 23:51:40;;;;;;;56.25;27.82;;;;;;;3.77;76.26;99877.59;1737910;82;21350;-64
2022/02/02 23:54:48;;;;;;;61.42;29.95;;;;;;;3.77;76.28;99877.59;1737826;81;21382;-65
2022/02/02 23:58:01;;;;;;;60.17;29.00;;;;;;;3.75;76.45;99878.22;1739305;82;21215;-65
